Time;durP1;ratioP1;P1;durP2;ratioP2;P2;SDS_P1;SDS_P2;PMS_P1;PMS_P2;Temp;Humidity;BMP_temperature;BMP_pressure;BME280_temperature;BME280_humidity;BME280_pressure;Samples;Min_cycle;Max_cycle;Signal;HPM_P1;HPM_P2
2023/05/30 00:00:15;;;;;;;14.13;4.53;;;;;;;;;;5132745;28;20015;-62
2023/05/30 00:02:42;;;;;;;11.30;4.00;;;;;;;;;;5132980;28;20135;-62
2023/05/30 00:05:12;;;;;;;12.50;4.43;;;;;;;;;;5131376;28;20023;-61
2023/05/30 00:07:39;;;;;;;9.10;5.33;;;;;;;;;;5127238;28;20083;-61
2023/05/30 00:10:06;;;;;;;9.43;5.07;;;;;;;;;;5128591;27;20489;-62
2023/05/30 00:12:33;;;;;;;7.87;4.60;;;;;;;;;;5131233;27;20023;-61
2023/05/30 00:15:01;;;;;;;10.83;4.93;;;;;;;;;;5131627;27;20027;-61
2023/05/30 00:17:27;;;;;;;9.80;5.77;;;;;;;;;;5136176;27;20027;-61
2023/05/30 00:19:54;;;;;;;5.37;4.23;;;;;;;;;;5136657;27;20040;-61
2023/05/30 00:22:25;;;;;;;6.43;4.10;;;;;;;;;;5136390;27;20019;-61
2023/05/30 00:24:52;;;;;;;11.90;4.60;;;;;;;;;;5136385;27;20110;-61
2023/05/30 00:27:19;;;;;;;10.00;5.37;;;;;;;;;;5135250;27;20051;-62
2023/05/30 00:29:46;;;;;;;14.53;6.60;;;;;;;;;;5130918;27;20354;-63
2023/05/30 00:32:13;;;;;;;10.63;5.77;;;;;;;;;;5130916;27;20146;-62
2023/05/30 00:34:40;;;;;;;7.47;6.07;;;;;;;;;;5130480;27;20091;-62
2023/05/30 00:37:08;;;;;;;7.77;5.63;;;;;;;;;;5130857;27;20027;-61
2023/05/30 00:39:36;;;;;;;9.67;6.13;;;;;;;;;;5136054;27;20023;-61
2023/05/30 00:42:04;;;;;;;7.53;5.67;;;;;;;;;;5136057;27;20027;-61
2023/05/30 00:44:30;;;;;;;8.87;4.43;;;;;;;;;;5135729;27;20071;-61
2023/05/30 00:46:57;;;;;;;5.90;4.37;;;;;;;;;;5136038;27;20075;-61
2023/05/30 00:49:24;;;;;;;6.80;5.37;;;;;;;;;;5135948;27;20031;-61
2023/05/30 00:51:51;;;;;;;11.07;6.13;;;;;;;;;;5130047;27;20023;-61
2023/05/30 00:54:19;;;;;;;6.13;4.70;;;;;;;;;;5130551;27;20023;-61
2023/05/30 00:56:46;;;;;;;7.67;4.87;;;;;;;;;;5130294;27;20072;-61
2023/05/30 00:59:12;;;;;;;7.50;5.07;;;;;;;;;;5130188;27;20170;-61
2023/05/30 01:01:42;;;;;;;6.77;5.87;;;;;;;;;;5134910;27;20056;-61
2023/05/30 01:04:10;;;;;;;7.77;5.67;;;;;;;;;;5135414;27;20035;-61
2023/05/30 01:06:39;;;;;;;10.37;5.83;;;;;;;;;;5135650;27;20579;-61
2023/05/30 01:09:07;;;;;;;8.27;5.03;;;;;;;;;;5135419;27;20405;-61
2023/05/30 01:11:33;;;;;;;9.17;4.80;;;;;;;;;;5135509;27;20172;-61
2023/05/30 01:14:07;;;;;;;6.57;5.00;;;;;;;;;;5130467;27;20102;-61
2023/05/30 01:16:37;;;;;;;7.70;4.90;;;;;;;;;;5129964;27;20046;-61
2023/05/30 01:19:14;;;;;;;6.57;4.43;;;;;;;;;;5129697;27;20030;-61
2023/05/30 01:21:41;;;;;;;7.77;5.00;;;;;;;;;;5129657;27;20106;-61
2023/05/30 01:24:11;;;;;;;6.57;5.17;;;;;;;;;;5134469;27;20039;-61
2023/05/30 01:26:41;;;;;;;7.03;4.90;;;;;;;;;;5135290;27;20436;-61
2023/05/30 01:29:09;;;;;;;7.17;5.03;;;;;;;;;;5135370;27;20037;-61
2023/05/30 01:31:36;;;;;;;5.03;4.03;;;;;;;;;;5134707;27;20076;-61
2023/05/30 01:34:03;;;;;;;17.63;6.40;;;;;;;;;;5135118;27;20059;-61
2023/05/30 01:36:30;;;;;;;9.37;5.40;;;;;;;;;;5129764;27;20567;-61
2023/05/30 01:38:57;;;;;;;4.23;3.67;;;;;;;;;;5129488;27;20066;-61
2023/05/30 01:42:01;;;;;;;6.13;5.00;;;;;;;;;;5129429;27;20027;-61
2023/05/30 01:44:46;;;;;;;7.97;5.40;;;;;;;;;;5025629;28;20515;-61
2023/05/30 01:47:21;;;;;;;11.45;4.70;;;;;;;;;;5128521;27;20038;-61
2023/05/30 01:49:56;;;;;;;9.63;5.50;;;;;;;;;;5134666;27;20374;-62
2023/05/30 01:52:26;;;;;;;6.93;4.97;;;;;;;;;;5134667;27;20488;-61
2023/05/30 01:54:55;;;;;;;6.60;5.50;;;;;;;;;;5134655;27;20078;-61
2023/05/30 01:57:24;;;;;;;5.83;4.80;;;;;;;;;;5133010;27;20023;-61
2023/05/30 01:59:51;;;;;;;7.43;5.63;;;;;;;;;;5128832;27;20027;-61
2023/05/30 02:02:17;;;;;;;10.87;5.60;;;;;;;;;;5128991;27;20046;-61
2023/05/30 02:04:44;;;;;;;7.03;5.70;;;;;;;;;;5128958;27;20038;-61
2023/05/30 02:07:11;;;;;;;5.80;4.67;;;;;;;;;;5129085;27;20026;-61
2023/05/30 02:09:39;;;;;;;7.70;5.43;;;;;;;;;;5134649;27;20027;-61
2023/05/30 02:12:06;;;;;;;8.77;5.57;;;;;;;;;;5134335;27;20015;-61
2023/05/30 02:14:33;;;;;;;6.20;5.13;;;;;;;;;;5134103;27;20497;-61
2023/05/30 02:16:59;;;;;;;13.37;6.23;;;;;;;;;;5134097;27;20019;-60
2023/05/30 02:19:26;;;;;;;6.43;5.10;;;;;;;;;;5133282;27;20472;-61
2023/05/30 02:21:53;;;;;;;5.43;4.13;;;;;;;;;;5128783;27;20023;-61
2023/05/30 02:24:21;;;;;;;6.17;5.17;;;;;;;;;;5128149;27;20038;-62
2023/05/30 02:26:48;;;;;;;13.27;6.37;;;;;;;;;;5128518;27;20053;-61
2023/05/30 02:29:15;;;;;;;8.77;5.50;;;;;;;;;;5128361;27;20031;-61
2023/05/30 02:31:41;;;;;;;8.37;4.97;;;;;;;;;;5133964;27;20098;-61
2023/05/30 02:34:08;;;;;;;6.20;5.03;;;;;;;;;;5133118;27;20090;-61
2023/05/30 02:36:38;;;;;;;5.37;4.80;;;;;;;;;;5133934;27;20031;-61
2023/05/30 02:39:09;;;;;;;8.20;5.80;;;;;;;;;;5133678;27;20041;-61
2023/05/30 02:41:37;;;;;;;6.73;5.13;;;;;;;;;;5133626;27;20015;-61
2023/05/30 02:44:06;;;;;;;7.50;6.10;;;;;;;;;;5127882;27;20556;-61
2023/05/30 02:46:33;;;;;;;8.63;5.50;;;;;;;;;;5128200;27;20122;-61
2023/05/30 02:49:01;;;;;;;6.33;5.17;;;;;;;;;;5128137;27;20030;-61
2023/05/30 02:51:27;;;;;;;7.07;5.30;;;;;;;;;;5127947;27;20050;-60
2023/05/30 02:53:55;;;;;;;9.23;6.77;;;;;;;;;;5133103;27;20015;-61
2023/05/30 02:56:23;;;;;;;7.57;4.90;;;;;;;;;;5133016;27;20026;-60
2023/05/30 02:58:50;;;;;;;4.77;4.27;;;;;;;;;;5133557;27;20032;-60
2023/05/30 03:01:17;;;;;;;7.90;5.03;;;;;;;;;;5133336;27;20052;-61
2023/05/30 03:03:44;;;;;;;5.67;4.57;;;;;;;;;;5131223;27;20096;-61
2023/05/30 03:06:12;;;;;;;11.07;5.77;;;;;;;;;;5122082;27;20035;-61
2023/05/30 03:08:39;;;;;;;7.43;5.53;;;;;;;;;;5121030;27;20034;-61
2023/05/30 03:11:06;;;;;;;7.63;5.70;;;;;;;;;;5107550;28;20374;-60
2023/05/30 03:13:33;;;;;;;11.80;5.40;;;;;;;;;;5107054;28;20417;-60
2023/05/30 03:15:59;;;;;;;6.77;5.80;;;;;;;;;;5131959;27;20505;-60
2023/05/30 03:18:26;;;;;;;8.73;5.97;;;;;;;;;;5133245;27;20027;-61
2023/05/30 03:20:53;;;;;;;10.30;5.33;;;;;;;;;;5133361;27;20102;-60
2023/05/30 03:23:20;;;;;;;8.23;5.37;;;;;;;;;;5133222;28;20035;-60
2023/05/30 03:25:46;;;;;;;7.93;6.27;;;;;;;;;;5132906;28;20035;-60
2023/05/30 03:28:13;;;;;;;6.10;5.13;;;;;;;;;;5128877;28;20417;-60
2023/05/30 03:30:40;;;;;;;8.17;4.97;;;;;;;;;;5127867;28;20473;-60
2023/05/30 03:33:07;;;;;;;9.80;5.03;;;;;;;;;;5127667;28;20427;-60
2023/05/30 03:35:33;;;;;;;8.00;5.50;;;;;;;;;;5127279;28;20027;-60
2023/05/30 03:38:00;;;;;;;11.43;5.17;;;;;;;;;;5131017;28;20020;-60
2023/05/30 03:40:27;;;;;;;5.40;4.90;;;;;;;;;;5116705;28;20063;-61
2023/05/30 03:42:55;;;;;;;6.23;5.60;;;;;;;;;;5112274;28;20080;-60
2023/05/30 03:45:21;;;;;;;8.97;5.43;;;;;;;;;;5114455;28;20473;-60
2023/05/30 03:47:48;;;;;;;11.27;5.80;;;;;;;;;;5116809;28;20506;-60
2023/05/30 03:50:15;;;;;;;5.60;4.17;;;;;;;;;;5114442;27;20024;-60
2023/05/30 03:52:42;;;;;;;6.33;4.50;;;;;;;;;;5111624;27;20027;-60
2023/05/30 03:55:10;;;;;;;4.40;3.93;;;;;;;;;;5110995;28;20097;-60
2023/05/30 03:57:37;;;;;;;10.67;5.90;;;;;;;;;;5111032;28;20072;-60
2023/05/30 04:00:04;;;;;;;4.73;3.97;;;;;;;;;;5119272;27;20063;-60
2023/05/30 04:02:31;;;;;;;5.43;4.50;;;;;;;;;;5131295;27;20036;-60
2023/05/30 04:04:57;;;;;;;8.33;3.87;;;;;;;;;;5136826;27;20035;-60
2023/05/30 04:07:27;;;;;;;8.03;4.80;;;;;;;;;;5136423;27;20507;-60
2023/05/30 04:09:54;;;;;;;4.27;3.33;;;;;;;;;;5136456;27;20028;-60
2023/05/30 04:12:21;;;;;;;7.03;4.80;;;;;;;;;;5134022;27;20099;-60
2023/05/30 04:14:47;;;;;;;5.80;4.23;;;;;;;;;;5131089;27;20050;-60
2023/05/30 04:17:14;;;;;;;5.27;4.10;;;;;;;;;;5131468;27;20023;-60
2023/05/30 04:19:41;;;;;;;4.27;3.67;;;;;;;;;;5116680;27;20024;-60
2023/05/30 04:22:08;;;;;;;5.53;3.97;;;;;;;;;;5112769;28;20032;-60
2023/05/30 04:24:35;;;;;;;5.27;4.27;;;;;;;;;;5115508;28;20023;-60
2023/05/30 04:27:02;;;;;;;5.30;4.07;;;;;;;;;;5115999;28;20061;-60
2023/05/30 04:29:29;;;;;;;5.40;3.80;;;;;;;;;;5123716;27;20455;-60
2023/05/30 04:31:56;;;;;;;4.57;3.73;;;;;;;;;;5115804;28;20016;-61
2023/05/30 04:34:24;;;;;;;5.00;4.07;;;;;;;;;;5113502;28;20046;-60
2023/05/30 04:36:53;;;;;;;6.40;4.57;;;;;;;;;;5110451;28;20031;-61
2023/05/30 04:39:22;;;;;;;4.87;3.97;;;;;;;;;;5110411;27;20040;-60
2023/05/30 04:41:54;;;;;;;5.30;3.73;;;;;;;;;;5117101;27;20393;-60
2023/05/30 04:44:22;;;;;;;5.20;4.60;;;;;;;;;;5132156;27;20081;-61
2023/05/30 04:46:48;;;;;;;6.10;4.47;;;;;;;;;;5136176;27;20041;-60
2023/05/30 04:49:16;;;;;;;5.67;4.33;;;;;;;;;;5136189;27;20030;-61
2023/05/30 04:51:43;;;;;;;6.23;4.60;;;;;;;;;;5135421;27;20083;-60
2023/05/30 04:54:10;;;;;;;3.93;3.33;;;;;;;;;;5135972;27;20096;-60
2023/05/30 04:56:38;;;;;;;4.17;3.23;;;;;;;;;;5133388;27;20027;-61
2023/05/30 04:59:05;;;;;;;4.27;3.83;;;;;;;;;;5130726;27;20034;-60
2023/05/30 05:01:35;;;;;;;6.83;4.00;;;;;;;;;;5127121;27;20397;-62
2023/05/30 05:04:05;;;;;;;5.63;4.10;;;;;;;;;;5100582;28;20024;-61
2023/05/30 05:06:31;;;;;;;12.67;4.70;;;;;;;;;;5090502;28;20020;-60
2023/05/30 05:08:58;;;;;;;4.53;3.60;;;;;;;;;;5107103;28;20027;-61
2023/05/30 05:11:25;;;;;;;6.40;4.33;;;;;;;;;;5114750;27;20028;-60
2023/05/30 05:13:52;;;;;;;6.77;4.33;;;;;;;;;;5114775;28;20066;-60
2023/05/30 05:16:19;;;;;;;5.43;4.17;;;;;;;;;;5114821;28;20059;-60
2023/05/30 05:18:45;;;;;;;5.50;4.30;;;;;;;;;;5113522;28;20055;-60
2023/05/30 05:21:12;;;;;;;8.37;4.30;;;;;;;;;;5118112;27;20046;-60
2023/05/30 05:23:39;;;;;;;6.47;4.70;;;;;;;;;;5129562;27;20510;-61
2023/05/30 05:26:06;;;;;;;5.87;4.27;;;;;;;;;;5122847;27;20024;-61
2023/05/30 05:28:33;;;;;;;7.57;5.40;;;;;;;;;;5109625;28;20024;-60
2023/05/30 05:31:00;;;;;;;6.60;5.00;;;;;;;;;;5114455;28;20031;-61
2023/05/30 05:33:26;;;;;;;6.77;4.03;;;;;;;;;;5096405;28;20076;-60
2023/05/30 05:35:53;;;;;;;4.87;4.03;;;;;;;;;;5114518;28;20036;-60
2023/05/30 05:38:20;;;;;;;18.47;4.33;;;;;;;;;;5114675;28;20086;-60
2023/05/30 05:40:47;;;;;;;6.60;4.63;;;;;;;;;;5114202;27;20128;-60
2023/05/30 05:43:14;;;;;;;6.07;4.83;;;;;;;;;;5109087;28;20062;-60
2023/05/30 05:45:41;;;;;;;30.27;5.17;;;;;;;;;;5109450;28;20533;-60
2023/05/30 05:48:08;;;;;;;6.77;4.93;;;;;;;;;;5108884;28;20028;-60
2023/05/30 05:50:35;;;;;;;5.90;4.57;;;;;;;;;;5108994;27;20031;-60
2023/05/30 05:53:02;;;;;;;7.00;4.17;;;;;;;;;;5113923;28;20045;-61
2023/05/30 05:55:28;;;;;;;3.70;2.97;;;;;;;;;;5114306;28;20016;-60
2023/05/30 05:57:55;;;;;;;7.50;4.57;;;;;;;;;;5114048;28;20027;-60
2023/05/30 06:00:22;;;;;;;8.03;4.10;;;;;;;;;;5114016;28;20051;-60
2023/05/30 06:02:49;;;;;;;4.33;3.70;;;;;;;;;;5114012;28;20034;-60
2023/05/30 06:05:15;;;;;;;3.97;3.03;;;;;;;;;;5108634;28;20024;-60
2023/05/30 06:07:42;;;;;;;9.63;4.80;;;;;;;;;;5107976;28;20382;-60
2023/05/30 06:10:10;;;;;;;4.90;3.57;;;;;;;;;;5108684;28;20028;-60
2023/05/30 06:12:37;;;;;;;7.37;4.17;;;;;;;;;;5119562;27;20081;-60
2023/05/30 06:15:04;;;;;;;3.57;2.50;;;;;;;;;;5133264;27;20406;-60
2023/05/30 06:17:31;;;;;;;5.80;3.80;;;;;;;;;;5134229;27;20378;-60
2023/05/30 06:19:57;;;;;;;3.60;2.53;;;;;;;;;;5134222;27;20168;-60
2023/05/30 06:22:24;;;;;;;5.03;3.10;;;;;;;;;;5133404;27;20035;-61
2023/05/30 06:24:51;;;;;;;4.30;2.60;;;;;;;;;;5134192;27;20039;-60
2023/05/30 06:27:18;;;;;;;5.47;3.93;;;;;;;;;;5130128;27;20031;-60
2023/05/30 06:29:44;;;;;;;4.03;3.00;;;;;;;;;;5129008;27;20038;-60
2023/05/30 06:32:11;;;;;;;3.33;2.93;;;;;;;;;;5128512;27;20522;-60
2023/05/30 06:34:38;;;;;;;4.13;3.13;;;;;;;;;;5128658;27;20058;-60
2023/05/30 06:37:05;;;;;;;5.27;2.87;;;;;;;;;;5131786;27;20023;-60
2023/05/30 06:39:32;;;;;;;2.50;2.07;;;;;;;;;;5134003;27;20020;-60
2023/05/30 06:41:59;;;;;;;3.40;2.80;;;;;;;;;;5133412;27;20030;-60
2023/05/30 06:44:25;;;;;;;2.87;2.30;;;;;;;;;;5133729;27;20406;-60
2023/05/30 06:46:52;;;;;;;3.43;2.90;;;;;;;;;;5133980;27;20146;-60
2023/05/30 06:49:19;;;;;;;3.50;2.63;;;;;;;;;;5130462;27;20043;-60
2023/05/30 06:51:46;;;;;;;3.50;2.50;;;;;;;;;;5128048;27;20106;-60
2023/05/30 06:54:13;;;;;;;2.37;2.00;;;;;;;;;;5128389;27;20023;-60
2023/05/30 06:56:39;;;;;;;4.07;2.97;;;;;;;;;;5128570;27;20465;-60
2023/05/30 06:59:06;;;;;;;3.40;2.47;;;;;;;;;;5130776;27;20428;-60
2023/05/30 07:01:33;;;;;;;3.27;2.40;;;;;;;;;;5133151;27;20057;-60
2023/05/30 07:04:00;;;;;;;4.00;2.63;;;;;;;;;;5133505;27;20039;-60
2023/05/30 07:06:27;;;;;;;4.30;2.90;;;;;;;;;;5133380;27;20401;-60
2023/05/30 07:08:53;;;;;;;3.50;2.70;;;;;;;;;;5133442;27;20019;-61
2023/05/30 07:11:22;;;;;;;2.77;2.23;;;;;;;;;;5130551;27;20043;-60
2023/05/30 07:13:48;;;;;;;2.20;1.67;;;;;;;;;;5128339;27;20085;-60
2023/05/30 07:16:15;;;;;;;4.10;2.83;;;;;;;;;;5128046;27;20365;-60
2023/05/30 07:18:42;;;;;;;3.00;2.40;;;;;;;;;;5127842;27;20015;-60
2023/05/30 07:21:10;;;;;;;4.83;2.43;;;;;;;;;;5129651;27;20026;-60
2023/05/30 07:23:36;;;;;;;4.30;2.83;;;;;;;;;;5133220;27;20518;-60
2023/05/30 07:26:03;;;;;;;3.03;2.23;;;;;;;;;;5128370;28;20090;-60
2023/05/30 07:28:30;;;;;;;10.10;2.70;;;;;;;;;;5112678;28;20078;-60
2023/05/30 07:30:57;;;;;;;9.57;2.90;;;;;;;;;;5112622;28;20032;-60
2023/05/30 07:33:23;;;;;;;3.43;2.27;;;;;;;;;;5110310;28;20024;-60
2023/05/30 07:35:50;;;;;;;2.87;2.27;;;;;;;;;;5107210;28;20035;-60
2023/05/30 07:38:17;;;;;;;3.47;2.60;;;;;;;;;;5107353;28;20027;-60
2023/05/30 07:40:44;;;;;;;3.80;2.57;;;;;;;;;;5107249;28;20030;-60
2023/05/30 07:43:10;;;;;;;3.90;2.90;;;;;;;;;;5108263;28;20032;-60
2023/05/30 07:45:37;;;;;;;2.93;2.03;;;;;;;;;;5112499;28;20136;-60
2023/05/30 07:48:05;;;;;;;4.70;2.40;;;;;;;;;;5112583;28;20381;-60
2023/05/30 07:50:32;;;;;;;4.53;2.50;;;;;;;;;;5111967;28;20059;-60
2023/05/30 07:52:58;;;;;;;2.60;1.97;;;;;;;;;;5132671;28;20469;-61
2023/05/30 07:55:26;;;;;;;3.10;2.10;;;;;;;;;;5131736;28;20421;-60
2023/05/30 07:57:53;;;;;;;2.90;1.97;;;;;;;;;;5127561;28;20074;-60
2023/05/30 08:00:20;;;;;;;2.77;1.97;;;;;;;;;;5127664;28;20027;-61
2023/05/30 08:02:47;;;;;;;3.20;2.43;;;;;;;;;;5127316;28;20019;-60
2023/05/30 08:05:14;;;;;;;4.67;2.83;;;;;;;;;;5128124;28;20132;-60
2023/05/30 08:07:40;;;;;;;3.13;2.30;;;;;;;;;;5132277;28;20047;-60
2023/05/30 08:10:07;;;;;;;3.37;2.50;;;;;;;;;;5132951;28;20020;-60
2023/05/30 08:12:34;;;;;;;2.67;1.80;;;;;;;;;;5132575;28;20106;-60
2023/05/30 08:15:01;;;;;;;2.23;1.87;;;;;;;;;;5132707;28;20023;-60
2023/05/30 08:17:29;;;;;;;3.23;2.57;;;;;;;;;;5131747;28;20015;-61
2023/05/30 08:19:56;;;;;;;4.73;3.50;;;;;;;;;;5127533;28;20505;-60
2023/05/30 08:22:23;;;;;;;4.47;2.70;;;;;;;;;;5126134;28;20031;-60
2023/05/30 08:24:59;;;;;;;3.83;3.10;;;;;;;;;;5127351;28;20417;-61
2023/05/30 08:27:26;;;;;;;4.60;3.40;;;;;;;;;;5127539;28;20031;-60
2023/05/30 08:29:53;;;;;;;5.80;3.50;;;;;;;;;;5132738;27;20047;-60
2023/05/30 08:32:20;;;;;;;4.73;3.27;;;;;;;;;;5135620;27;20472;-61
2023/05/30 08:34:47;;;;;;;4.33;3.20;;;;;;;;;;5136149;27;20374;-61
2023/05/30 08:37:14;;;;;;;6.53;3.50;;;;;;;;;;5136301;27;20026;-61
2023/05/30 08:39:41;;;;;;;10.00;4.70;;;;;;;;;;5135591;27;20098;-60
2023/05/30 08:42:08;;;;;;;8.77;3.93;;;;;;;;;;5130880;27;20030;-60
2023/05/30 08:44:35;;;;;;;4.03;3.40;;;;;;;;;;5130692;27;20114;-60
2023/05/30 08:47:01;;;;;;;5.23;4.07;;;;;;;;;;5130861;27;20372;-60
2023/05/30 08:49:33;;;;;;;5.03;4.23;;;;;;;;;;5130839;27;20024;-60
2023/05/30 08:52:02;;;;;;;10.63;4.70;;;;;;;;;;5135292;27;20036;-60
2023/05/30 08:54:32;;;;;;;8.33;3.63;;;;;;;;;;5135639;27;20049;-60
2023/05/30 08:57:02;;;;;;;3.80;3.13;;;;;;;;;;5135912;27;20020;-61
2023/05/30 08:59:29;;;;;;;4.93;3.70;;;;;;;;;;5135830;27;20016;-60
2023/05/30 09:01:57;;;;;;;5.33;3.77;;;;;;;;;;5135429;27;20023;-60
2023/05/30 09:04:23;;;;;;;12.40;3.63;;;;;;;;;;5130427;27;20074;-60
2023/05/30 09:06:51;;;;;;;6.57;4.47;;;;;;;;;;5130446;27;20023;-61
2023/05/30 09:09:18;;;;;;;6.30;3.87;;;;;;;;;;5130202;27;20094;-60
2023/05/30 09:11:45;;;;;;;5.50;4.10;;;;;;;;;;5129996;27;20039;-60
2023/05/30 09:14:12;;;;;;;4.93;3.77;;;;;;;;;;5135208;27;20750;-60
2023/05/30 09:16:39;;;;;;;3.57;3.07;;;;;;;;;;5135458;27;20056;-60
2023/05/30 09:19:07;;;;;;;7.60;3.27;;;;;;;;;;5135616;27;20373;-60
2023/05/30 09:21:35;;;;;;;8.37;4.30;;;;;;;;;;5135149;27;20027;-60
2023/05/30 09:24:05;;;;;;;5.10;3.77;;;;;;;;;;5135203;27;20037;-60
2023/05/30 09:26:32;;;;;;;4.97;3.63;;;;;;;;;;5122845;27;20028;-60
2023/05/30 09:29:17;;;;;;;18.23;3.47;;;;;;;;;;5121559;27;20374;-60
2023/05/30 09:31:44;;;;;;;5.25;3.95;;;;;;;;;;5130262;27;20377;-60
2023/05/30 09:34:18;;;;;;;3.60;2.40;;;;;;;;;;5129849;27;20038;-60
2023/05/30 09:36:53;;;;;;;4.33;3.17;;;;;;;;;;5134913;27;20011;-60
2023/05/30 09:39:20;;;;;;;9.10;3.60;;;;;;;;;;5135014;27;20373;-60
2023/05/30 09:41:47;;;;;;;4.60;3.87;;;;;;;;;;5134707;27;20378;-60
2023/05/30 09:44:14;;;;;;;5.77;4.53;;;;;;;;;;5134739;27;20156;-60
2023/05/30 09:46:40;;;;;;;4.10;3.47;;;;;;;;;;5134570;27;20106;-60
2023/05/30 09:49:13;;;;;;;12.30;4.10;;;;;;;;;;5129357;27;20031;-61
2023/05/30 09:51:40;;;;;;;5.63;4.17;;;;;;;;;;5129765;27;20038;-60
2023/05/30 09:54:09;;;;;;;4.40;3.93;;;;;;;;;;5127816;27;20039;-60
2023/05/30 09:56:42;;;;;;;8.90;4.07;;;;;;;;;;5129676;27;20027;-60
2023/05/30 09:59:10;;;;;;;4.80;3.87;;;;;;;;;;5134752;27;20047;-60
2023/05/30 10:01:47;;;;;;;4.57;3.57;;;;;;;;;;5134504;27;20047;-60
2023/05/30 10:04:14;;;;;;;5.23;3.93;;;;;;;;;;5134020;27;20027;-60
2023/05/30 10:06:42;;;;;;;3.97;3.20;;;;;;;;;;5134581;27;20039;-60
2023/05/30 10:09:11;;;;;;;4.83;3.07;;;;;;;;;;5133734;27;20086;-60
2023/05/30 10:11:38;;;;;;;4.70;3.07;;;;;;;;;;5129207;27;20019;-60
2023/05/30 10:14:06;;;;;;;2.87;2.57;;;;;;;;;;5129009;27;20019;-60
2023/05/30 10:16:36;;;;;;;5.20;3.70;;;;;;;;;;5129091;27;20023;-60
2023/05/30 10:19:07;;;;;;;5.33;3.67;;;;;;;;;;5129103;27;20480;-60
2023/05/30 10:21:37;;;;;;;3.93;2.83;;;;;;;;;;5134369;27;20110;-60
2023/05/30 10:24:04;;;;;;;4.37;3.13;;;;;;;;;;5134141;27;20038;-60
2023/05/30 10:26:32;;;;;;;4.00;3.00;;;;;;;;;;5093368;28;20028;-60
2023/05/30 10:28:59;;;;;;;5.07;3.60;;;;;;;;;;5093177;28;20032;-60
2023/05/30 10:31:26;;;;;;;4.77;3.33;;;;;;;;;;5092361;28;20103;-60
2023/05/30 10:33:53;;;;;;;3.73;2.80;;;;;;;;;;5087302;28;20024;-60
2023/05/30 10:36:20;;;;;;;3.20;2.40;;;;;;;;;;5087799;28;20093;-61
2023/05/30 10:38:51;;;;;;;3.27;2.57;;;;;;;;;;5107794;27;20130;-60
2023/05/30 10:41:30;;;;;;;3.27;2.63;;;;;;;;;;5108335;28;20031;-61
2023/05/30 10:44:11;;;;;;;3.77;3.00;;;;;;;;;;5113163;28;20115;-60
2023/05/30 10:46:57;;;;;;;4.30;2.70;;;;;;;;;;5113374;28;20525;-60
2023/05/30 10:49:29;;;;;;;4.30;2.83;;;;;;;;;;5113074;28;20042;-60
2023/05/30 10:51:58;;;;;;;7.30;3.40;;;;;;;;;;5112902;28;20057;-60
2023/05/30 10:54:25;;;;;;;4.27;3.27;;;;;;;;;;5110281;28;20030;-60
2023/05/30 10:56:52;;;;;;;3.53;2.60;;;;;;;;;;5108097;28;20051;-60
2023/05/30 10:59:19;;;;;;;4.10;3.17;;;;;;;;;;5107876;28;20312;-60
2023/05/30 11:02:02;;;;;;;3.20;2.60;;;;;;;;;;5107941;28;20024;-60
2023/05/30 11:04:34;;;;;;;13.77;2.67;;;;;;;;;;5109750;28;20031;-60
2023/05/30 11:07:04;;;;;;;4.23;3.43;;;;;;;;;;5112945;28;20100;-60
2023/05/30 11:09:31;;;;;;;4.73;3.07;;;;;;;;;;5112682;28;20420;-60
2023/05/30 11:11:58;;;;;;;8.50;3.33;;;;;;;;;;5113052;28;20027;-60
2023/05/30 11:14:26;;;;;;;3.77;2.20;;;;;;;;;;5112775;28;20098;-60
2023/05/30 11:16:56;;;;;;;4.53;2.97;;;;;;;;;;5113719;28;20027;-60
2023/05/30 11:19:37;;;;;;;5.27;3.57;;;;;;;;;;5128109;27;20474;-60
2023/05/30 11:22:11;;;;;;;5.80;2.83;;;;;;;;;;5127996;27;20026;-60
2023/05/30 11:24:38;;;;;;;3.20;2.60;;;;;;;;;;5128014;27;20047;-60
2023/05/30 11:27:07;;;;;;;7.90;3.67;;;;;;;;;;5108351;28;20111;-60
2023/05/30 11:29:36;;;;;;;3.13;2.63;;;;;;;;;;5092409;28;20043;-60
2023/05/30 11:32:06;;;;;;;4.23;3.53;;;;;;;;;;5091985;28;20065;-61
2023/05/30 11:34:34;;;;;;;4.40;3.33;;;;;;;;;;5092235;28;20151;-60
2023/05/30 11:37:02;;;;;;;2.87;2.27;;;;;;;;;;5095688;28;20023;-60
2023/05/30 11:39:31;;;;;;;3.03;2.63;;;;;;;;;;5109684;28;20027;-60
2023/05/30 11:42:00;;;;;;;3.13;2.77;;;;;;;;;;5107801;28;20503;-59
2023/05/30 11:44:26;;;;;;;3.10;2.47;;;;;;;;;;5107459;28;20081;-60
2023/05/30 11:47:00;;;;;;;3.50;2.77;;;;;;;;;;5107236;28;20051;-60
2023/05/30 11:49:27;;;;;;;5.03;3.23;;;;;;;;;;5110310;28;20370;-60
2023/05/30 11:51:54;;;;;;;5.17;3.23;;;;;;;;;;5112814;28;20023;-60
2023/05/30 11:54:21;;;;;;;3.63;2.90;;;;;;;;;;5112383;28;20081;-60
2023/05/30 11:56:50;;;;;;;4.77;3.27;;;;;;;;;;5112663;28;20534;-60
2023/05/30 11:59:19;;;;;;;4.67;3.03;;;;;;;;;;5112394;28;20107;-60
2023/05/30 12:01:58;;;;;;;8.80;3.43;;;;;;;;;;5109346;28;20043;-61
2023/05/30 12:04:32;;;;;;;3.23;2.53;;;;;;;;;;5107437;28;20039;-60
2023/05/30 12:07:03;;;;;;;4.07;2.50;;;;;;;;;;5110471;28;20020;-60
2023/05/30 12:09:35;;;;;;;4.70;3.23;;;;;;;;;;5111505;28;20294;-59
2023/05/30 12:12:02;;;;;;;5.10;3.70;;;;;;;;;;5114695;28;20031;-60
2023/05/30 12:14:38;;;;;;;9.80;4.23;;;;;;;;;;5116242;28;20030;-59
2023/05/30 12:17:09;;;;;;;15.40;4.33;;;;;;;;;;5115968;27;20047;-60
2023/05/30 12:19:36;;;;;;;4.07;3.53;;;;;;;;;;5116095;28;20106;-60
2023/05/30 12:22:06;;;;;;;3.00;2.40;;;;;;;;;;5116222;28;20023;-59
2023/05/30 12:24:37;;;;;;;4.03;3.43;;;;;;;;;;5112125;28;20134;-60
2023/05/30 12:27:07;;;;;;;5.37;3.70;;;;;;;;;;5110982;28;20028;-60
2023/05/30 12:29:34;;;;;;;4.17;3.50;;;;;;;;;;5110881;28;20055;-60
2023/05/30 12:32:01;;;;;;;4.33;2.90;;;;;;;;;;5111044;28;20062;-59
2023/05/30 12:34:45;;;;;;;5.30;3.87;;;;;;;;;;5114176;28;20037;-59
2023/05/30 12:37:12;;;;;;;4.17;3.53;;;;;;;;;;5116059;28;20441;-60
2023/05/30 12:39:46;;;;;;;5.03;4.20;;;;;;;;;;5115847;27;20465;-59
2023/05/30 12:42:12;;;;;;;5.27;4.13;;;;;;;;;;5115102;28;20028;-60
2023/05/30 12:44:46;;;;;;;6.83;4.33;;;;;;;;;;5115707;28;20039;-60
2023/05/30 12:47:13;;;;;;;6.27;4.60;;;;;;;;;;5110362;28;20063;-60
2023/05/30 12:49:40;;;;;;;5.27;3.90;;;;;;;;;;5110633;28;20535;-60
2023/05/30 12:52:07;;;;;;;13.70;4.63;;;;;;;;;;5110395;27;20394;-60
2023/05/30 12:54:35;;;;;;;6.83;4.40;;;;;;;;;;5110426;28;20020;-60
2023/05/30 12:57:01;;;;;;;8.13;4.17;;;;;;;;;;5114395;28;20030;-60
2023/05/30 12:59:28;;;;;;;4.07;3.40;;;;;;;;;;5115529;28;20474;-60
2023/05/30 13:01:55;;;;;;;5.33;3.90;;;;;;;;;;5115622;28;20027;-60
2023/05/30 13:04:22;;;;;;;5.40;4.27;;;;;;;;;;5115002;27;20032;-60
2023/05/30 13:06:49;;;;;;;5.33;4.17;;;;;;;;;;5115754;28;20480;-59
2023/05/30 13:09:16;;;;;;;5.13;4.30;;;;;;;;;;5110435;28;20409;-60
2023/05/30 13:11:43;;;;;;;8.07;5.00;;;;;;;;;;5110177;28;20034;-59
2023/05/30 13:14:10;;;;;;;5.00;3.87;;;;;;;;;;5110104;28;20024;-60
2023/05/30 13:16:36;;;;;;;6.17;4.77;;;;;;;;;;5109639;28;20035;-60
2023/05/30 13:19:04;;;;;;;5.67;4.23;;;;;;;;;;5113592;28;20027;-59
2023/05/30 13:21:31;;;;;;;5.30;4.73;;;;;;;;;;5115072;28;20027;-59
2023/05/30 13:23:57;;;;;;;8.87;4.97;;;;;;;;;;5115984;27;20043;-60
2023/05/30 13:26:25;;;;;;;8.37;4.37;;;;;;;;;;5114789;28;20024;-59
2023/05/30 13:28:52;;;;;;;5.77;4.30;;;;;;;;;;5114969;28;20027;-61
2023/05/30 13:31:18;;;;;;;5.73;4.37;;;;;;;;;;5110901;28;20028;-60
2023/05/30 13:33:45;;;;;;;6.07;4.50;;;;;;;;;;5120622;27;20344;-60
2023/05/30 13:36:12;;;;;;;5.03;4.10;;;;;;;;;;5130049;27;20420;-60
2023/05/30 13:38:39;;;;;;;6.10;4.57;;;;;;;;;;5130436;27;20023;-60
2023/05/30 13:41:06;;;;;;;5.63;4.20;;;;;;;;;;5133293;27;20422;-60
2023/05/30 13:43:33;;;;;;;6.47;4.07;;;;;;;;;;5134546;27;20505;-60
2023/05/30 13:46:00;;;;;;;5.37;3.70;;;;;;;;;;5135199;27;20023;-60
2023/05/30 13:48:26;;;;;;;5.33;3.43;;;;;;;;;;5134938;27;20039;-60
2023/05/30 13:50:54;;;;;;;4.50;3.53;;;;;;;;;;5134945;27;20102;-60
2023/05/30 13:53:20;;;;;;;3.47;2.80;;;;;;;;;;5131177;27;20080;-60
2023/05/30 13:55:47;;;;;;;3.87;2.90;;;;;;;;;;5129575;27;20019;-60
2023/05/30 13:58:14;;;;;;;3.80;2.97;;;;;;;;;;5130024;27;20019;-60
2023/05/30 14:00:41;;;;;;;4.77;3.03;;;;;;;;;;5130071;27;20023;-61
2023/05/30 14:03:08;;;;;;;4.63;3.37;;;;;;;;;;5132193;27;20019;-61
2023/05/30 14:05:35;;;;;;;2.60;2.40;;;;;;;;;;5134917;27;20019;-60
2023/05/30 14:08:03;;;;;;;4.33;2.80;;;;;;;;;;5125917;27;20403;-61
2023/05/30 14:10:31;;;;;;;6.07;2.30;;;;;;;;;;5134481;27;20011;-60
2023/05/30 14:12:58;;;;;;;1.97;1.63;;;;;;;;;;5134599;27;20412;-61
2023/05/30 14:15:25;;;;;;;6.97;3.23;;;;;;;;;;5131629;27;20492;-61
2023/05/30 14:17:52;;;;;;;4.03;2.87;;;;;;;;;;5128973;27;20111;-61
2023/05/30 14:20:19;;;;;;;3.40;2.73;;;;;;;;;;5129223;27;20031;-61
2023/05/30 14:22:45;;;;;;;3.07;2.53;;;;;;;;;;5129458;27;20088;-61
2023/05/30 14:25:12;;;;;;;5.20;3.10;;;;;;;;;;5131488;27;20035;-61
2023/05/30 14:27:39;;;;;;;12.03;3.27;;;;;;;;;;5134039;27;20022;-61
2023/05/30 14:30:12;;;;;;;3.57;2.83;;;;;;;;;;5133547;27;20034;-61
2023/05/30 14:32:40;;;;;;;4.60;3.00;;;;;;;;;;5134291;27;20127;-61
2023/05/30 14:35:08;;;;;;;2.80;2.37;;;;;;;;;;5133874;27;20039;-61
2023/05/30 14:37:35;;;;;;;9.47;3.40;;;;;;;;;;5131311;27;20031;-61
2023/05/30 14:40:02;;;;;;;3.90;3.07;;;;;;;;;;5129054;27;20486;-61
2023/05/30 14:42:30;;;;;;;3.23;2.40;;;;;;;;;;5115301;27;20080;-61
2023/05/30 14:44:57;;;;;;;5.13;3.03;;;;;;;;;;5087972;28;20502;-61